Time;durP1;ratioP1;P1;durP2;ratioP2;P2;SDS_P1;SDS_P2;PMS_P1;PMS_P2;Temp;Humidity;BMP_temperature;BMP_pressure;BME280_temperature;BME280_humidity;BME280_pressure;Samples;Min_cycle;Max_cycle;Signal;HPM_P1;HPM_P2
2023/05/05 00:01:14;;;;;;;28.27;25.92;;;11.90;99.90;;;;;;4954490;28;20043;-76
2023/05/05 00:03:41;;;;;;;28.70;25.95;;;12.00;99.90;;;;;;4936270;28;20047;-78
2023/05/05 00:06:08;;;;;;;28.65;26.30;;;12.00;99.90;;;;;;4939987;28;20043;-75
2023/05/05 00:08:35;;;;;;;28.77;26.27;;;12.00;99.90;;;;;;4920150;29;20130;-75
2023/05/05 00:11:01;;;;;;;28.77;26.40;;;12.00;99.90;;;;;;4954249;28;20051;-75
2023/05/05 00:13:28;;;;;;;27.98;25.50;;;12.00;99.90;;;;;;4939302;28;20047;-78
2023/05/05 00:15:57;;;;;;;28.20;25.80;;;12.00;99.90;;;;;;4937488;28;20039;-78
2023/05/05 00:18:24;;;;;;;28.98;26.48;;;11.90;99.90;;;;;;4954052;28;20584;-76
2023/05/05 00:20:51;;;;;;;28.30;25.90;;;11.90;99.90;;;;;;4956602;28;20591;-76
2023/05/05 00:23:18;;;;;;;28.25;25.88;;;12.00;99.90;;;;;;4939944;28;20039;-77
2023/05/05 00:25:45;;;;;;;28.83;26.42;;;12.00;99.90;;;;;;4933261;28;20134;-75
2023/05/05 00:28:13;;;;;;;28.80;26.35;;;12.00;99.90;;;;;;4939439;28;20435;-75
2023/05/05 00:30:39;;;;;;;28.50;25.98;;;11.90;99.90;;;;;;4919749;29;20059;-76
2023/05/05 00:33:06;;;;;;;29.38;27.02;;;11.90;99.90;;;;;;4940459;28;20138;-77
2023/05/05 00:35:33;;;;;;;28.20;25.95;;;11.80;99.90;;;;;;4938119;28;20039;-76
2023/05/05 00:38:00;;;;;;;28.10;25.75;;;11.70;99.90;;;;;;4952351;28;20412;-76
2023/05/05 00:40:27;;;;;;;29.23;26.50;;;11.70;99.90;;;;;;4940713;28;20086;-76
2023/05/05 00:42:54;;;;;;;28.73;26.30;;;11.70;99.90;;;;;;4941539;28;20183;-77
2023/05/05 00:45:20;;;;;;;29.23;26.70;;;11.70;99.90;;;;;;4957160;28;20251;-75
2023/05/05 00:47:56;;;;;;;28.85;26.05;;;11.70;99.90;;;;;;4941522;28;20130;-76
2023/05/05 00:50:24;;;;;;;29.17;26.38;;;11.60;99.90;;;;;;4941817;28;20058;-75
2023/05/05 00:52:54;;;;;;;28.27;25.83;;;11.70;99.90;;;;;;4954840;28;20065;-76
2023/05/05 00:55:21;;;;;;;29.65;27.05;;;11.70;99.90;;;;;;4939981;28;20047;-75
2023/05/05 00:57:48;;;;;;;28.38;25.90;;;11.60;99.90;;;;;;4955539;28;20151;-77
2023/05/05 01:00:16;;;;;;;28.35;26.05;;;11.70;99.90;;;;;;4942293;28;20039;-76
2023/05/05 01:02:43;;;;;;;29.00;26.65;;;11.70;99.90;;;;;;4954466;28;20039;-76
2023/05/05 01:05:12;;;;;;;28.50;26.35;;;11.70;99.90;;;;;;4957542;28;20073;-77
2023/05/05 01:07:43;;;;;;;28.55;25.77;;;11.60;99.90;;;;;;4955044;28;20138;-75
2023/05/05 01:10:22;;;;;;;28.95;26.25;;;11.70;99.90;;;;;;4952488;28;20062;-75
2023/05/05 01:13:19;;;;;;;29.13;26.52;;;11.70;99.90;;;;;;4954318;28;20043;-75
2023/05/05 01:16:05;;;;;;;28.05;25.58;;;11.70;99.90;;;;;;4938153;28;20535;-75
2023/05/05 01:18:52;;;;;;;27.35;25.35;;;11.70;99.90;;;;;;4941898;28;20043;-75
2023/05/05 01:21:34;;;;;;;28.85;25.67;;;11.70;99.90;;;;;;4937566;28;20067;-77
2023/05/05 01:24:20;;;;;;;28.15;25.65;;;11.60;99.90;;;;;;4938912;28;20773;-75
2023/05/05 01:26:56;;;;;;;27.95;25.35;;;11.60;99.90;;;;;;4937857;28;20043;-77
2023/05/05 01:29:48;;;;;;;26.63;24.52;;;11.60;99.90;;;;;;4955401;28;20047;-76
2023/05/05 01:32:21;;;;;;;28.05;25.33;;;11.70;99.90;;;;;;4938156;28;20078;-75
2023/05/05 01:35:00;;;;;;;26.98;24.77;;;11.60;99.90;;;;;;4937719;28;20039;-76
2023/05/05 01:37:54;;;;;;;28.77;26.27;;;11.50;99.90;;;;;;4939643;28;20051;-75
2023/05/05 01:40:25;;;;;;;27.98;25.67;;;11.40;99.90;;;;;;4940768;28;20103;-76
2023/05/05 01:42:54;;;;;;;27.58;25.27;;;11.40;99.90;;;;;;4956760;28;20472;-76
2023/05/05 01:45:25;;;;;;;27.90;25.65;;;11.40;99.90;;;;;;4962370;28;20089;-75
2023/05/05 01:47:54;;;;;;;27.55;25.20;;;11.50;99.90;;;;;;4954569;28;20051;-75
2023/05/05 01:50:23;;;;;;;27.40;25.15;;;11.50;99.90;;;;;;4942506;28;20047;-76
2023/05/05 01:52:51;;;;;;;28.67;26.08;;;11.50;99.90;;;;;;4954571;28;20565;-76
2023/05/05 01:55:20;;;;;;;28.38;25.92;;;11.50;99.90;;;;;;4961455;28;20043;-76
2023/05/05 01:57:48;;;;;;;28.15;25.85;;;11.60;99.90;;;;;;4937217;28;20492;-75
2023/05/05 02:00:17;;;;;;;28.30;26.00;;;11.60;99.90;;;;;;4956192;28;20126;-74
2023/05/05 02:02:48;;;;;;;28.17;25.63;;;11.60;99.90;;;;;;4952812;28;20051;-74
2023/05/05 02:05:18;;;;;;;28.13;25.60;;;11.60;99.90;;;;;;4940888;28;20656;-76
2023/05/05 02:07:46;;;;;;;27.48;25.17;;;11.50;99.90;;;;;;4952367;28;20086;-75
2023/05/05 02:10:13;;;;;;;27.95;25.45;;;11.50;99.90;;;;;;4939888;28;20047;-75
2023/05/05 02:12:43;;;;;;;28.85;26.23;;;11.50;99.90;;;;;;4937547;28;20148;-74
2023/05/05 02:15:11;;;;;;;27.45;25.27;;;11.60;99.90;;;;;;4947260;28;20497;-76
2023/05/05 02:17:43;;;;;;;28.17;25.85;;;11.50;99.90;;;;;;4954428;28;20084;-74
2023/05/05 02:20:12;;;;;;;27.40;24.80;;;11.60;99.90;;;;;;4935415;28;20039;-75
2023/05/05 02:22:40;;;;;;;27.67;25.38;;;11.70;99.90;;;;;;4939585;28;20059;-74
2023/05/05 02:25:08;;;;;;;26.70;24.60;;;11.70;99.90;;;;;;4940851;29;20053;-75
2023/05/05 02:27:40;;;;;;;27.00;24.73;;;11.70;99.90;;;;;;4937216;29;20057;-76
2023/05/05 02:30:10;;;;;;;27.63;25.30;;;11.60;99.90;;;;;;4939390;28;20054;-76
2023/05/05 02:32:43;;;;;;;27.40;25.00;;;11.60;99.90;;;;;;4959708;28;20074;-75
2023/05/05 02:35:15;;;;;;;26.70;24.67;;;11.70;99.90;;;;;;4955025;28;20045;-75
2023/05/05 02:37:49;;;;;;;27.42;25.13;;;11.70;99.90;;;;;;4950978;28;20050;-74
2023/05/05 02:40:23;;;;;;;27.88;25.50;;;11.70;99.90;;;;;;4938825;28;20047;-76
2023/05/05 02:42:53;;;;;;;27.10;24.80;;;11.70;99.90;;;;;;4936073;28;20054;-76
2023/05/05 02:45:25;;;;;;;28.02;25.42;;;11.70;99.90;;;;;;4954061;28;20059;-75
2023/05/05 02:47:52;;;;;;;28.10;25.38;;;11.70;99.90;;;;;;4956249;28;20591;-75
2023/05/05 02:50:20;;;;;;;28.33;26.00;;;11.60;99.90;;;;;;4954653;28;20168;-76
2023/05/05 02:52:55;;;;;;;27.08;24.73;;;11.70;99.90;;;;;;4952386;28;20051;-74
2023/05/05 02:55:22;;;;;;;27.33;24.83;;;11.60;99.90;;;;;;4937927;28;20430;-74
2023/05/05 02:58:03;;;;;;;28.92;25.98;;;11.50;99.90;;;;;;4956648;28;20082;-76
2023/05/05 03:00:54;;;;;;;29.65;25.95;;;11.50;99.90;;;;;;4954715;28;20039;-75
2023/05/05 03:03:50;;;;;;;28.17;25.38;;;11.40;99.90;;;;;;4951621;28;20457;-76
2023/05/05 03:06:20;;;;;;;28.05;25.67;;;11.30;99.90;;;;;;4933234;29;20050;-75
2023/05/05 03:09:14;;;;;;;27.92;25.38;;;11.10;99.90;;;;;;4951429;28;20043;-75
2023/05/05 03:12:04;;;;;;;;;;;11.00;99.90;;;;;;4935679;28;20062;-74
2023/05/05 03:14:43;;;;;;;27.83;25.27;;;11.10;99.90;;;;;;4945133;28;20637;-75
2023/05/05 03:17:16;;;;;;;27.00;24.75;;;11.00;99.90;;;;;;4938061;28;20512;-74
2023/05/05 03:19:43;;;;;;;28.35;25.85;;;11.00;99.90;;;;;;4949840;28;20066;-75
2023/05/05 03:22:10;;;;;;;28.42;25.88;;;11.10;99.90;;;;;;4936859;28;20171;-75
2023/05/05 03:24:41;;;;;;;28.33;25.98;;;11.00;99.90;;;;;;4937962;28;20114;-75
2023/05/05 03:27:09;;;;;;;28.75;26.27;;;11.00;99.90;;;;;;4936901;28;20049;-75
2023/05/05 03:29:38;;;;;;;28.92;26.20;;;11.00;99.90;;;;;;4947006;28;20057;-76
2023/05/05 03:32:10;;;;;;;28.80;26.10;;;10.90;99.90;;;;;;4941566;28;20098;-76
2023/05/05 03:34:37;;;;;;;28.02;25.83;;;10.80;99.90;;;;;;4921275;29;20214;-75
2023/05/05 03:37:04;;;;;;;28.25;25.70;;;10.80;99.90;;;;;;4919218;29;20062;-75
2023/05/05 03:39:31;;;;;;;28.38;25.67;;;10.80;99.90;;;;;;4933543;28;20110;-75
2023/05/05 03:41:58;;;;;;;28.38;26.02;;;10.80;99.90;;;;;;4934961;28;20035;-75
2023/05/05 03:44:29;;;;;;;29.75;26.55;;;10.80;99.90;;;;;;4925481;29;20042;-73
2023/05/05 03:46:56;;;;;;;28.50;26.02;;;10.90;99.90;;;;;;4954461;28;20512;-76
2023/05/05 03:49:23;;;;;;;29.77;27.38;;;10.80;99.90;;;;;;4941830;29;20039;-76
2023/05/05 03:51:50;;;;;;;29.02;26.25;;;10.80;99.90;;;;;;4955791;28;20043;-75
2023/05/05 03:54:17;;;;;;;29.35;26.52;;;10.70;99.90;;;;;;4954759;28;20568;-76
2023/05/05 03:56:44;;;;;;;28.92;26.67;;;10.70;99.90;;;;;;4939930;29;20059;-75
2023/05/05 03:59:11;;;;;;;29.15;26.85;;;10.70;99.90;;;;;;4941400;28;20047;-76
2023/05/05 04:01:38;;;;;;;29.35;26.88;;;10.70;99.90;;;;;;4941213;28;20102;-76
2023/05/05 04:04:05;;;;;;;28.77;26.38;;;10.60;99.90;;;;;;4940915;28;20047;-75
2023/05/05 04:06:32;;;;;;;37.42;34.10;;;10.50;99.90;;;;;;4954320;28;20051;-76
2023/05/05 04:08:59;;;;;;;35.60;32.70;;;10.60;99.90;;;;;;4940792;28;20039;-76
2023/05/05 04:11:26;;;;;;;36.45;33.65;;;10.50;99.90;;;;;;4944596;28;20513;-76
2023/05/05 04:13:54;;;;;;;35.20;32.40;;;10.50;99.90;;;;;;4960411;28;20062;-76
2023/05/05 04:16:20;;;;;;;34.70;31.58;;;10.60;99.90;;;;;;4945010;28;20549;-75
2023/05/05 04:18:48;;;;;;;35.47;32.67;;;10.50;99.90;;;;;;4943802;28;20122;-77
2023/05/05 04:21:15;;;;;;;34.63;32.13;;;10.50;99.90;;;;;;4960600;28;20094;-75
2023/05/05 04:23:42;;;;;;;34.22;31.42;;;10.50;99.90;;;;;;4959214;28;20082;-76
2023/05/05 04:26:09;;;;;;;35.38;32.60;;;10.60;99.90;;;;;;4957657;28;20043;-76
2023/05/05 04:28:36;;;;;;;38.08;34.65;;;10.60;99.90;;;;;;4961266;28;20551;-76
2023/05/05 04:31:03;;;;;;;34.40;31.90;;;10.80;99.90;;;;;;4959656;28;20085;-75
2023/05/05 04:33:33;;;;;;;36.13;32.20;;;10.70;99.90;;;;;;4960199;28;20048;-76
2023/05/05 04:36:02;;;;;;;34.53;31.85;;;10.70;99.90;;;;;;4958792;28;20040;-75
2023/05/05 04:38:29;;;;;;;33.78;31.38;;;10.60;99.90;;;;;;4960753;28;20071;-76
2023/05/05 04:40:56;;;;;;;35.00;32.35;;;10.70;99.90;;;;;;4958234;28;20043;-77
2023/05/05 04:43:22;;;;;;;35.65;32.80;;;10.70;99.90;;;;;;4960831;28;20062;-76
2023/05/05 04:45:53;;;;;;;36.20;32.95;;;10.70;99.90;;;;;;4942762;28;20518;-76
2023/05/05 04:48:23;;;;;;;33.38;30.73;;;10.80;99.90;;;;;;4945756;28;20059;-76
2023/05/05 04:50:50;;;;;;;33.17;30.38;;;11.00;99.90;;;;;;4941602;28;20047;-76
2023/05/05 04:53:17;;;;;;;33.15;30.42;;;11.00;99.90;;;;;;4944859;28;20036;-77
2023/05/05 04:55:44;;;;;;;32.83;30.27;;;10.90;99.90;;;;;;4943511;28;20043;-75
2023/05/05 04:58:11;;;;;;;33.45;30.95;;;11.00;99.90;;;;;;4942572;29;20122;-75
2023/05/05 05:00:38;;;;;;;35.35;32.65;;;11.00;99.90;;;;;;4952539;28;20043;-76
2023/05/05 05:03:05;;;;;;;34.58;31.80;;;11.10;99.90;;;;;;4960797;28;20082;-79
2023/05/05 05:05:32;;;;;;;35.42;32.60;;;10.90;99.90;;;;;;4944906;28;20040;-75
2023/05/05 05:07:58;;;;;;;33.47;30.77;;;11.00;99.90;;;;;;4959784;28;20714;-76
2023/05/05 05:10:25;;;;;;;35.40;32.22;;;11.10;99.90;;;;;;4956541;28;20612;-78
2023/05/05 05:12:52;;;;;;;34.97;32.33;;;11.20;99.90;;;;;;4943035;28;20138;-75
2023/05/05 05:15:19;;;;;;;35.28;32.67;;;11.40;99.90;;;;;;4960063;28;20071;-77
2023/05/05 05:17:46;;;;;;;34.03;31.52;;;11.40;99.90;;;;;;4941833;29;20090;-76
2023/05/05 05:20:13;;;;;;;36.05;33.38;;;11.40;99.90;;;;;;4951790;28;20081;-77
2023/05/05 05:22:41;;;;;;;36.55;33.50;;;11.50;99.90;;;;;;4958490;28;20051;-76
2023/05/05 05:25:11;;;;;;;35.67;32.72;;;11.60;99.90;;;;;;4942093;28;20062;-78
2023/05/05 05:27:40;;;;;;;35.67;32.95;;;11.70;99.90;;;;;;4940332;28;20054;-78
2023/05/05 05:30:08;;;;;;;33.97;31.65;;;11.70;99.90;;;;;;4958044;28;20066;-76
2023/05/05 05:32:35;;;;;;;34.33;31.75;;;12.00;99.90;;;;;;4929336;29;20090;-74
2023/05/05 05:35:03;;;;;;;35.28;32.38;;;12.10;99.90;;;;;;4944031;28;20051;-76
2023/05/05 05:37:30;;;;;;;33.63;31.17;;;12.20;99.90;;;;;;4959402;28;20057;-75
2023/05/05 05:39:58;;;;;;;33.70;31.27;;;12.30;99.90;;;;;;4958130;28;20377;-77
2023/05/05 05:42:25;;;;;;;33.20;30.55;;;12.50;99.90;;;;;;4939822;28;20134;-77
2023/05/05 05:44:52;;;;;;;34.53;32.15;;;12.80;99.90;;;;;;4942663;29;20047;-78
2023/05/05 05:47:19;;;;;;;34.63;31.67;;;13.10;99.90;;;;;;4944083;28;20114;-75
2023/05/05 05:49:46;;;;;;;35.50;33.10;;;13.30;99.90;;;;;;4957846;28;20678;-76
2023/05/05 05:52:13;;;;;;;36.17;33.72;;;13.40;99.90;;;;;;4959026;28;20063;-75
2023/05/05 05:54:40;;;;;;;35.45;32.95;;;13.70;99.90;;;;;;4942240;28;20120;-77
2023/05/05 05:57:08;;;;;;;37.50;35.00;;;13.80;99.90;;;;;;4956142;28;20047;-74
2023/05/05 05:59:34;;;;;;;38.88;36.38;;;14.00;99.90;;;;;;4944009;29;20705;-74
2023/05/05 06:02:02;;;;;;;36.47;34.00;;;14.20;99.90;;;;;;4947463;28;20051;-76
2023/05/05 06:04:31;;;;;;;37.08;34.50;;;14.30;99.90;;;;;;4958543;28;20051;-76
2023/05/05 06:06:58;;;;;;;37.65;34.92;;;14.50;99.90;;;;;;4956403;28;20058;-75
2023/05/05 06:09:25;;;;;;;36.25;33.58;;;14.60;99.90;;;;;;4946234;28;20051;-75
2023/05/05 06:11:53;;;;;;;35.03;32.53;;;14.80;99.90;;;;;;4957406;28;20126;-77
2023/05/05 06:14:20;;;;;;;34.35;31.90;;;14.90;99.90;;;;;;4937498;29;20039;-77
2023/05/05 06:16:47;;;;;;;35.17;32.38;;;15.00;99.90;;;;;;4942254;28;20171;-77
2023/05/05 06:19:17;;;;;;;33.95;31.33;;;15.10;99.90;;;;;;4942031;29;20075;-74
2023/05/05 06:21:44;;;;;;;33.50;31.02;;;15.10;99.90;;;;;;4956207;28;20048;-75
2023/05/05 06:24:11;;;;;;;34.15;31.58;;;15.10;99.90;;;;;;4957322;28;20043;-76
2023/05/05 06:26:39;;;;;;;32.28;29.95;;;15.20;99.90;;;;;;4957975;28;20055;-76
2023/05/05 06:29:06;;;;;;;31.10;29.05;;;15.20;99.90;;;;;;4948893;28;20057;-75
2023/05/05 06:31:32;;;;;;;32.95;30.48;;;15.30;99.90;;;;;;4932436;28;20163;-75
2023/05/05 06:33:59;;;;;;;32.38;30.08;;;15.40;99.90;;;;;;4955084;28;20058;-74
2023/05/05 06:36:26;;;;;;;33.63;30.90;;;15.60;99.90;;;;;;4942279;28;20039;-75
2023/05/05 06:38:53;;;;;;;35.80;33.20;;;15.90;99.90;;;;;;4957442;28;20047;-75
2023/05/05 06:41:20;;;;;;;33.95;31.45;;;16.30;99.90;;;;;;4942925;28;20035;-76
2023/05/05 06:43:46;;;;;;;33.15;30.70;;;16.60;99.90;;;;;;4941638;28;20061;-76
2023/05/05 06:46:14;;;;;;;33.00;30.83;;;16.80;99.90;;;;;;4942022;28;20043;-75
2023/05/05 06:48:40;;;;;;;34.15;31.85;;;17.10;99.90;;;;;;4943900;29;20062;-76
2023/05/05 06:51:08;;;;;;;36.53;33.70;;;17.30;99.90;;;;;;4941494;28;20058;-76
2023/05/05 06:53:35;;;;;;;34.38;31.70;;;17.50;99.90;;;;;;4944077;28;20106;-75
2023/05/05 06:56:01;;;;;;;35.38;32.63;;;17.90;99.90;;;;;;4955500;28;20035;-75
2023/05/05 06:58:28;;;;;;;36.45;33.95;;;18.30;99.90;;;;;;4942605;28;20063;-76
2023/05/05 07:00:55;;;;;;;39.55;36.55;;;18.60;99.90;;;;;;4949195;28;20047;-76
2023/05/05 07:03:22;;;;;;;39.47;36.88;;;18.90;99.90;;;;;;4955300;28;20043;-75
2023/05/05 07:05:49;;;;;;;38.10;35.55;;;19.10;99.90;;;;;;4941155;28;20067;-74
2023/05/05 07:08:16;;;;;;;41.60;38.60;;;18.90;99.90;;;;;;4956879;28;20625;-76
2023/05/05 07:10:43;;;;;;;39.70;36.55;;;18.70;99.90;;;;;;4940789;28;20074;-75
2023/05/05 07:13:09;;;;;;;38.88;35.97;;;18.60;99.90;;;;;;4941667;28;20047;-75
2023/05/05 07:15:36;;;;;;;39.00;35.70;;;18.30;99.90;;;;;;4942268;28;20043;-75
2023/05/05 07:18:03;;;;;;;43.45;40.13;;;17.90;99.90;;;;;;4940998;29;20067;-76
2023/05/05 07:20:30;;;;;;;49.08;45.22;;;17.60;99.90;;;;;;4942792;28;20051;-76
2023/05/05 07:22:56;;;;;;;51.25;46.63;;;17.30;99.90;;;;;;4942054;28;20039;-78
2023/05/05 07:25:23;;;;;;;44.97;40.55;;;16.70;99.90;;;;;;4943871;28;20118;-78
2023/05/05 07:27:50;;;;;;;44.15;39.42;;;15.90;99.90;;;;;;4949655;28;20508;-77
2023/05/05 07:30:17;;;;;;;39.97;35.83;;;15.30;99.90;;;;;;4943039;28;20696;-77
2023/05/05 07:32:45;;;;;;;38.35;34.65;;;14.90;99.90;;;;;;4944052;28;20055;-78
2023/05/05 07:35:12;;;;;;;41.53;36.38;;;14.70;99.90;;;;;;4957140;28;20074;-78
2023/05/05 07:37:38;;;;;;;41.08;35.50;;;14.50;99.90;;;;;;4942742;28;20146;-77
2023/05/05 07:40:06;;;;;;;45.08;37.47;;;14.50;99.90;;;;;;4925475;29;20190;-77
2023/05/05 07:42:33;;;;;;;42.60;36.28;;;14.70;99.90;;;;;;4943485;28;20097;-78
2023/05/05 07:45:04;;;;;;;45.70;35.22;;;14.70;99.90;;;;;;4954771;28;20045;-78
2023/05/05 07:47:31;;;;;;;39.45;34.85;;;14.90;99.90;;;;;;4949657;28;20047;-78
2023/05/05 07:49:59;;;;;;;40.08;34.00;;;15.10;99.90;;;;;;4949676;28;20043;-78
2023/05/05 07:52:26;;;;;;;42.25;35.72;;;15.20;99.90;;;;;;4961481;28;20654;-78
2023/05/05 07:55:09;;;;;;;38.95;32.15;;;15.50;99.90;;;;;;4955716;28;20078;-78
2023/05/05 07:57:37;;;;;;;36.78;31.83;;;15.90;99.90;;;;;;4934507;29;20047;-78
2023/05/05 08:00:04;;;;;;;34.53;30.90;;;16.10;99.90;;;;;;4945974;28;20047;-78
2023/05/05 08:02:37;;;;;;;37.20;32.15;;;16.30;99.90;;;;;;4941407;28;20041;-77
2023/05/05 08:05:05;;;;;;;36.80;33.10;;;16.20;99.90;;;;;;4962436;28;20105;-78
2023/05/05 08:07:32;;;;;;;38.28;34.20;;;16.10;99.90;;;;;;4964800;28;20146;-78
2023/05/05 08:09:59;;;;;;;42.53;37.42;;;16.10;99.90;;;;;;4965902;28;20134;-78
2023/05/05 08:12:26;;;;;;;41.92;37.70;;;16.10;99.90;;;;;;4946375;28;20118;-78
2023/05/05 08:14:52;;;;;;;45.75;40.90;;;16.00;99.90;;;;;;4949627;28;20044;-78
2023/05/05 08:17:19;;;;;;;46.97;41.28;;;16.10;99.90;;;;;;4966349;28;20501;-78
2023/05/05 08:19:46;;;;;;;45.45;41.00;;;16.10;99.90;;;;;;4949885;28;20470;-78
2023/05/05 08:22:12;;;;;;;47.30;42.67;;;16.00;99.90;;;;;;4964552;28;20046;-78
2023/05/05 08:24:39;;;;;;;46.15;41.38;;;16.10;99.90;;;;;;4949304;28;20051;-77
2023/05/05 08:27:06;;;;;;;46.00;41.40;;;16.20;99.90;;;;;;4937672;28;20508;-77
2023/05/05 08:29:32;;;;;;;44.55;39.83;;;16.20;99.90;;;;;;4966022;28;20663;-78
2023/05/05 08:31:59;;;;;;;46.83;42.13;;;16.10;99.90;;;;;;4967522;28;20043;-77
2023/05/05 08:34:26;;;;;;;46.10;41.47;;;16.10;99.90;;;;;;4969791;28;20109;-77
2023/05/05 08:36:52;;;;;;;47.15;42.55;;;16.30;99.90;;;;;;4966565;28;20489;-76
2023/05/05 08:39:19;;;;;;;47.45;42.55;;;16.40;99.90;;;;;;4952019;28;20049;-77
2023/05/05 08:41:46;;;;;;;46.75;42.05;;;16.40;99.90;;;;;;4969745;28;20626;-77
2023/05/05 08:44:13;;;;;;;48.63;43.65;;;16.60;99.90;;;;;;4969024;28;20527;-77
2023/05/05 08:46:41;;;;;;;48.92;44.17;;;16.60;99.90;;;;;;4954055;28;20050;-79
2023/05/05 08:49:14;;;;;;;50.10;45.13;;;16.50;99.90;;;;;;4952405;28;20050;-79
2023/05/05 08:51:42;;;;;;;49.45;44.88;;;16.40;99.90;;;;;;4970440;28;20074;-79
2023/05/05 08:54:13;;;;;;;48.13;43.28;;;16.40;99.90;;;;;;4968785;28;20097;-81
2023/05/05 08:56:41;;;;;;;49.97;44.80;;;16.40;99.90;;;;;;4969047;28;20057;-80
2023/05/05 08:59:09;;;;;;;49.92;44.90;;;16.40;99.90;;;;;;4967273;28;20574;-81
2023/05/05 09:01:36;;;;;;;48.60;43.80;;;16.40;99.90;;;;;;4967452;28;20693;-78
2023/05/05 09:04:04;;;;;;;52.45;47.28;;;16.50;99.90;;;;;;4948033;28;20086;-81
2023/05/05 09:06:32;;;;;;;51.97;46.72;;;16.70;99.90;;;;;;4964700;28;20522;-79
2023/05/05 09:09:00;;;;;;;50.35;45.83;;;17.00;99.90;;;;;;4962742;28;20496;-78
2023/05/05 09:11:27;;;;;;;50.50;45.55;;;17.20;99.90;;;;;;4964864;28;20057;-77
2023/05/05 09:13:54;;;;;;;50.15;45.22;;;17.60;99.90;;;;;;4962949;28;20046;-80
2023/05/05 09:16:21;;;;;;;51.47;46.60;;;17.70;99.90;;;;;;4967548;28;20077;-79
2023/05/05 09:18:48;;;;;;;52.45;47.17;;;17.90;99.90;;;;;;4938306;28;20149;-79
2023/05/05 09:21:21;;;;;;;52.13;47.72;;;17.80;99.90;;;;;;4950026;28;20039;-80
2023/05/05 09:24:11;;;;;;;53.20;48.53;;;17.90;99.90;;;;;;4951149;28;20046;-81
2023/05/05 09:26:42;;;;;;;54.13;49.28;;;17.90;99.90;;;;;;4940028;28;20049;-79
2023/05/05 09:29:17;;;;;;;54.90;49.35;;;18.00;99.90;;;;;;4965554;28;20145;-79
2023/05/05 09:31:45;;;;;;;54.85;50.05;;;18.10;99.90;;;;;;4958970;28;20488;-79
2023/05/05 09:34:16;;;;;;;53.45;49.05;;;18.10;99.90;;;;;;4949726;28;20042;-80
2023/05/05 09:36:46;;;;;;;50.90;46.83;;;18.40;99.90;;;;;;4965883;28;20035;-80
2023/05/05 09:39:16;;;;;;;51.20;46.95;;;18.60;99.90;;;;;;4948012;28;20057;-77
2023/05/05 09:41:43;;;;;;;51.38;46.92;;;18.80;99.90;;;;;;4966371;28;20074;-78
2023/05/05 09:44:11;;;;;;;53.25;48.63;;;19.10;99.90;;;;;;4961720;28;20604;-78
2023/05/05 09:46:49;;;;;;;51.50;47.25;;;19.40;99.90;;;;;;4944280;28;20039;-78
2023/05/05 09:49:22;;;;;;;50.67;46.47;;;19.70;99.90;;;;;;4959759;28;20067;-80
2023/05/05 09:51:48;;;;;;;48.75;44.75;;;19.90;99.90;;;;;;4963573;28;20046;-77
2023/05/05 09:54:26;;;;;;;48.25;44.58;;;20.10;99.90;;;;;;4960406;28;20408;-78
2023/05/05 09:56:54;;;;;;;49.13;45.30;;;20.30;99.90;;;;;;4942740;28;20047;-78
2023/05/05 09:59:21;;;;;;;49.05;45.05;;;20.30;99.90;;;;;;4959388;28;20138;-78
2023/05/05 10:01:49;;;;;;;47.45;43.85;;;20.30;99.90;;;;;;4961522;28;20039;-78
2023/05/05 10:04:27;;;;;;;44.25;40.90;;;20.40;99.90;;;;;;4946852;28;20093;-76
2023/05/05 10:06:55;;;;;;;46.38;42.63;;;20.50;99.90;;;;;;4959402;28;20047;-77
2023/05/05 10:09:23;;;;;;;44.72;40.65;;;20.60;99.90;;;;;;4950040;28;20045;-76
2023/05/05 10:11:51;;;;;;;47.00;42.70;;;20.70;99.90;;;;;;4928016;28;20126;-77
2023/05/05 10:14:18;;;;;;;44.67;40.58;;;20.70;99.90;;;;;;4957740;28;20447;-77
2023/05/05 10:16:50;;;;;;;44.95;41.70;;;20.40;99.90;;;;;;4945483;28;20546;-80
2023/05/05 10:19:19;;;;;;;44.15;40.92;;;20.40;99.90;;;;;;4973848;28;20043;-78
2023/05/05 10:21:53;;;;;;;44.97;41.47;;;20.60;99.90;;;;;;4960127;28;20050;-78
2023/05/05 10:24:29;;;;;;;40.97;37.92;;;20.90;99.90;;;;;;4939736;28;20125;-77
2023/05/05 10:26:58;;;;;;;43.25;39.70;;;21.10;99.90;;;;;;4939059;28;20047;-77
2023/05/05 10:29:45;;;;;;;45.70;42.17;;;21.20;99.90;;;;;;4942469;28;20065;-77
2023/05/05 10:32:35;;;;;;;45.70;42.25;;;21.10;99.90;;;;;;4955906;28;21392;-79
2023/05/05 10:35:26;;;;;;;45.22;41.50;;;21.30;99.90;;;;;;4933548;28;20039;-76
2023/05/05 10:37:53;;;;;;;38.70;36.00;;;21.40;99.90;;;;;;4943912;28;20066;-77
2023/05/05 10:40:21;;;;;;;39.97;37.00;;;21.70;99.90;;;;;;4956583;28;20559;-77
2023/05/05 10:42:49;;;;;;;43.10;40.10;;;21.80;99.90;;;;;;4956563;28;20426;-81
2023/05/05 10:45:16;;;;;;;42.95;39.85;;;21.80;99.90;;;;;;4946331;28;20493;-80
2023/05/05 10:47:43;;;;;;;41.33;38.38;;;21.60;99.90;;;;;;4945389;28;20151;-76
2023/05/05 10:50:33;;;;;;;40.97;38.05;;;21.80;99.90;;;;;;4954434;28;20751;-82
2023/05/05 10:53:19;;;;;;;42.35;39.05;;;22.00;99.90;;;;;;4955838;28;20055;-75
2023/05/05 10:56:10;;;;;;;44.72;41.45;;;22.20;99.90;;;;;;4953767;28;20650;-77
2023/05/05 10:58:38;;;;;;;39.28;36.65;;;21.90;99.90;;;;;;4954310;28;20540;-77
2023/05/05 11:01:32;;;;;;;40.13;37.15;;;22.10;99.90;;;;;;4955282;28;20043;-79
2023/05/05 11:04:19;;;;;;;39.10;36.33;;;22.10;99.90;;;;;;4952708;28;20047;-76
2023/05/05 11:07:08;;;;;;;38.83;35.92;;;21.90;99.90;;;;;;4968851;28;20050;-76
2023/05/05 11:10:01;;;;;;;37.35;34.65;;;22.00;99.90;;;;;;4955237;28;20074;-75
2023/05/05 11:12:30;;;;;;;38.92;36.13;;;22.10;99.90;;;;;;4938706;28;20038;-76
2023/05/05 11:15:27;;;;;;;35.83;33.45;;;22.10;99.90;;;;;;4957763;28;20051;-75
2023/05/05 11:17:55;;;;;;;38.58;35.78;;;22.30;99.90;;;;;;4952956;28;20035;-79
2023/05/05 11:20:34;;;;;;;41.60;38.47;;;22.20;99.90;;;;;;4954213;28;20125;-74
2023/05/05 11:23:01;;;;;;;40.28;37.38;;;22.20;99.90;;;;;;4956228;28;20043;-76
2023/05/05 11:25:34;;;;;;;40.08;37.03;;;22.30;99.90;;;;;;4954612;28;20751;-76
2023/05/05 11:28:12;;;;;;;40.65;37.53;;;22.40;99.90;;;;;;4939913;28;20443;-77
2023/05/05 11:30:54;;;;;;;40.05;37.17;;;22.10;99.90;;;;;;4948986;28;20708;-76
2023/05/05 11:33:37;;;;;;;34.22;31.10;;;22.20;99.90;;;;;;4953528;28;20118;-77
2023/05/05 11:36:08;;;;;;;34.45;31.55;;;22.10;99.90;;;;;;4946221;28;20071;-75
2023/05/05 11:39:00;;;;;;;33.00;30.50;;;22.30;99.90;;;;;;4956923;28;20049;-76
2023/05/05 11:41:32;;;;;;;34.33;31.92;;;22.10;99.90;;;;;;4938361;28;20058;-75
2023/05/05 11:44:15;;;;;;;32.53;30.33;;;22.10;99.90;;;;;;4939845;28;20100;-77
2023/05/05 11:46:51;;;;;;;33.05;30.75;;;22.10;99.90;;;;;;4939486;28;20135;-76
2023/05/05 11:49:31;;;;;;;35.80;33.50;;;22.10;99.90;;;;;;4952187;28;20055;-74
2023/05/05 11:52:06;;;;;;;34.42;32.13;;;22.40;99.90;;;;;;4955662;28;20043;-75
2023/05/05 11:54:39;;;;;;;35.85;33.38;;;22.50;99.90;;;;;;4955039;28;20154;-76
2023/05/05 11:57:07;;;;;;;35.13;32.63;;;22.70;99.90;;;;;;4940587;28;20039;-75
2023/05/05 11:59:36;;;;;;;34.78;32.50;;;22.90;99.90;;;;;;4941343;28;20117;-74
2023/05/05 12:02:03;;;;;;;34.25;31.90;;;23.00;99.90;;;;;;4950709;28;20079;-75
2023/05/05 12:04:30;;;;;;;33.47;31.25;;;22.90;99.90;;;;;;4943058;28;20057;-76
2023/05/05 12:06:58;;;;;;;34.15;31.85;;;22.90;99.90;;;;;;4953894;28;20077;-74
2023/05/05 12:09:25;;;;;;;34.75;32.50;;;23.00;99.90;;;;;;4954264;28;20524;-76
2023/05/05 12:11:54;;;;;;;33.60;31.40;;;23.00;99.90;;;;;;4938991;28;20055;-74
2023/05/05 12:14:22;;;;;;;32.45;30.25;;;23.30;99.90;;;;;;4953360;28;20054;-74
2023/05/05 12:16:55;;;;;;;33.80;31.52;;;23.40;99.90;;;;;;4951211;28;20035;-75
2023/05/05 12:19:22;;;;;;;30.40;28.40;;;23.50;99.90;;;;;;4954421;28;20062;-76
2023/05/05 12:21:49;;;;;;;34.17;32.08;;;23.70;99.90;;;;;;4938820;28;20074;-75
2023/05/05 12:24:16;;;;;;;37.35;34.88;;;23.30;99.90;;;;;;4954728;28;20611;-75
2023/05/05 12:26:43;;;;;;;37.13;34.67;;;23.30;99.90;;;;;;4956704;28;20504;-75
2023/05/05 12:29:09;;;;;;;39.03;36.53;;;23.20;99.90;;;;;;4956301;28;20039;-75
2023/05/05 12:31:38;;;;;;;33.00;30.88;;;22.80;99.90;;;;;;4955310;28;20042;-75
2023/05/05 12:34:07;;;;;;;34.25;32.10;;;22.90;99.90;;;;;;4942939;28;20051;-75
2023/05/05 12:36:35;;;;;;;33.13;31.00;;;23.10;99.90;;;;;;4946327;28;20055;-76
2023/05/05 12:39:03;;;;;;;32.85;30.48;;;23.10;99.90;;;;;;4959600;28;20047;-75
2023/05/05 12:41:31;;;;;;;32.50;30.45;;;23.10;99.90;;;;;;4956300;28;20039;-75
2023/05/05 12:43:59;;;;;;;34.42;32.30;;;23.10;99.90;;;;;;4947728;28;20077;-74